Terminal Aerodrome Forecast
Issued by NWS

Home | Current Version | Previous Version | Text Only | Print | Product List | Glossary On
Versions: 1 2 3 4 5 6 7 8 9 10 11 12 13 14 15 16 17 18 19 20 21 22 23 24 25 26 27 28 29 30 31 32 33 34 35 36 37 38 39 40 41 42 43 44 45
000
FTUS45 KPSR 311100 RRA
TAFIWA
TAF
KIWA 311143Z 3112/0112 VRB04KT P6SM VCSH BKN060 OVC100
      TEMPO 3112/3116 6SM BR
     FM311600 VRB04KT P6SM BKN035 OVC070
     FM312100 26005KT P6SM BKN035 OVC070 PROB30 3121/0102 6SM -SHRA
     FM010200 VRB03KT P6SM BKN060
      AMD LTD TO CLD VIS AND WIND TIL 311300=

USA.gov is the U.S. government's official web portal to all federal, state and local government web resources and services.